sensor_id;sensor_type;location;lat;lon;timestamp;P1;durP1;ratioP1;P2;durP2;ratioP2
64894;SDS011;51588;53.702;10.208;2023-10-09T00:02:21;6.57;;;4.23;;
64894;SDS011;51588;53.702;10.208;2023-10-09T00:04:49;7.77;;;4.43;;
64894;SDS011;51588;53.702;10.208;2023-10-09T00:07:16;5.60;;;3.70;;
64894;SDS011;51588;53.702;10.208;2023-10-09T00:09:44;6.30;;;3.80;;
64894;SDS011;51588;53.702;10.208;2023-10-09T00:12:16;5.30;;;3.30;;
64894;SDS011;51588;53.702;10.208;2023-10-09T00:14:47;6.43;;;3.43;;
64894;SDS011;51588;53.702;10.208;2023-10-09T00:17:15;5.10;;;3.40;;
64894;SDS011;51588;53.702;10.208;2023-10-09T00:19:45;6.07;;;3.50;;
64894;SDS011;51588;53.702;10.208;2023-10-09T00:22:16;6.20;;;3.50;;
64894;SDS011;51588;53.702;10.208;2023-10-09T00:24:51;6.97;;;3.30;;
64894;SDS011;51588;53.702;10.208;2023-10-09T00:27:35;7.63;;;3.90;;
64894;SDS011;51588;53.702;10.208;2023-10-09T00:30:01;5.40;;;3.53;;
64894;SDS011;51588;53.702;10.208;2023-10-09T00:32:31;7.70;;;3.57;;
64894;SDS011;51588;53.702;10.208;2023-10-09T00:34:59;6.10;;;3.60;;
64894;SDS011;51588;53.702;10.208;2023-10-09T00:37:46;6.00;;;3.20;;
64894;SDS011;51588;53.702;10.208;2023-10-09T00:40:16;5.63;;;3.27;;
64894;SDS011;51588;53.702;10.208;2023-10-09T00:42:45;5.03;;;2.87;;
64894;SDS011;51588;53.702;10.208;2023-10-09T00:45:13;5.17;;;3.13;;
64894;SDS011;51588;53.702;10.208;2023-10-09T00:47:49;4.83;;;3.00;;
64894;SDS011;51588;53.702;10.208;2023-10-09T00:50:16;4.83;;;2.90;;
64894;SDS011;51588;53.702;10.208;2023-10-09T00:52:49;4.30;;;2.80;;
64894;SDS011;51588;53.702;10.208;2023-10-09T00:55:18;5.40;;;2.80;;
64894;SDS011;51588;53.702;10.208;2023-10-09T00:57:46;4.63;;;2.70;;
64894;SDS011;51588;53.702;10.208;2023-10-09T01:00:16;5.63;;;3.17;;
64894;SDS011;51588;53.702;10.208;2023-10-09T01:03:00;5.37;;;3.17;;
64894;SDS011;51588;53.702;10.208;2023-10-09T01:05:41;3.23;;;2.37;;
64894;SDS011;51588;53.702;10.208;2023-10-09T01:08:17;3.20;;;2.10;;
64894;SDS011;51588;53.702;10.208;2023-10-09T01:10:50;4.30;;;2.60;;
64894;SDS011;51588;53.702;10.208;2023-10-09T01:13:21;5.40;;;2.67;;
64894;SDS011;51588;53.702;10.208;2023-10-09T01:15:52;3.30;;;2.50;;
64894;SDS011;51588;53.702;10.208;2023-10-09T01:18:19;4.00;;;2.80;;
64894;SDS011;51588;53.702;10.208;2023-10-09T01:20:46;4.00;;;2.47;;
64894;SDS011;51588;53.702;10.208;2023-10-09T01:23:13;4.27;;;2.60;;
64894;SDS011;51588;53.702;10.208;2023-10-09T01:25:40;4.27;;;2.47;;
64894;SDS011;51588;53.702;10.208;2023-10-09T01:28:14;3.30;;;2.30;;
64894;SDS011;51588;53.702;10.208;2023-10-09T01:30:41;4.10;;;2.53;;
64894;SDS011;51588;53.702;10.208;2023-10-09T01:33:08;2.70;;;2.20;;
64894;SDS011;51588;53.702;10.208;2023-10-09T01:35:47;4.37;;;2.57;;
64894;SDS011;51588;53.702;10.208;2023-10-09T01:38:19;3.00;;;2.10;;
64894;SDS011;51588;53.702;10.208;2023-10-09T01:40:55;3.97;;;2.23;;
64894;SDS011;51588;53.702;10.208;2023-10-09T01:43:28;3.97;;;2.43;;
64894;SDS011;51588;53.702;10.208;2023-10-09T01:45:55;3.43;;;2.50;;
64894;SDS011;51588;53.702;10.208;2023-10-09T01:48:21;4.90;;;2.40;;
64894;SDS011;51588;53.702;10.208;2023-10-09T01:50:49;3.63;;;2.50;;
64894;SDS011;51588;53.702;10.208;2023-10-09T01:53:16;3.47;;;2.20;;
64894;SDS011;51588;53.702;10.208;2023-10-09T01:55:48;2.53;;;1.97;;
64894;SDS011;51588;53.702;10.208;2023-10-09T01:58:15;3.83;;;2.57;;
64894;SDS011;51588;53.702;10.208;2023-10-09T02:00:49;2.50;;;2.20;;
64894;SDS011;51588;53.702;10.208;2023-10-09T02:03:20;4.10;;;2.23;;
64894;SDS011;51588;53.702;10.208;2023-10-09T02:05:48;2.50;;;1.83;;
64894;SDS011;51588;53.702;10.208;2023-10-09T02:08:15;3.30;;;2.23;;
64894;SDS011;51588;53.702;10.208;2023-10-09T02:10:51;2.80;;;1.87;;
64894;SDS011;51588;53.702;10.208;2023-10-09T02:13:20;3.60;;;2.10;;
64894;SDS011;51588;53.702;10.208;2023-10-09T02:15:55;4.83;;;2.00;;
64894;SDS011;51588;53.702;10.208;2023-10-09T02:18:39;3.03;;;2.00;;
64894;SDS011;51588;53.702;10.208;2023-10-09T02:21:19;3.47;;;2.07;;
64894;SDS011;51588;53.702;10.208;2023-10-09T02:23:54;2.90;;;1.80;;
64894;SDS011;51588;53.702;10.208;2023-10-09T02:26:23;2.10;;;1.87;;
64894;SDS011;51588;53.702;10.208;2023-10-09T02:28:54;3.20;;;1.70;;
64894;SDS011;51588;53.702;10.208;2023-10-09T02:31:23;2.50;;;1.87;;
64894;SDS011;51588;53.702;10.208;2023-10-09T02:33:52;2.07;;;1.63;;
64894;SDS011;51588;53.702;10.208;2023-10-09T02:36:20;3.20;;;1.90;;
64894;SDS011;51588;53.702;10.208;2023-10-09T02:38:46;2.93;;;1.77;;
64894;SDS011;51588;53.702;10.208;2023-10-09T02:41:14;2.90;;;2.00;;
64894;SDS011;51588;53.702;10.208;2023-10-09T02:43:54;2.67;;;1.77;;
64894;SDS011;51588;53.702;10.208;2023-10-09T02:46:21;2.80;;;1.70;;
64894;SDS011;51588;53.702;10.208;2023-10-09T02:48:54;2.40;;;1.70;;
64894;SDS011;51588;53.702;10.208;2023-10-09T02:51:23;2.40;;;1.83;;
64894;SDS011;51588;53.702;10.208;2023-10-09T02:53:58;2.73;;;1.77;;
64894;SDS011;51588;53.702;10.208;2023-10-09T02:56:32;2.40;;;1.80;;
64894;SDS011;51588;53.702;10.208;2023-10-09T02:59:03;3.67;;;2.33;;
64894;SDS011;51588;53.702;10.208;2023-10-09T03:01:31;2.43;;;1.77;;
64894;SDS011;51588;53.702;10.208;2023-10-09T03:03:59;2.07;;;1.40;;
64894;SDS011;51588;53.702;10.208;2023-10-09T03:06:27;3.60;;;1.90;;
64894;SDS011;51588;53.702;10.208;2023-10-09T03:08:59;2.87;;;1.80;;
64894;SDS011;51588;53.702;10.208;2023-10-09T03:11:28;3.57;;;1.90;;
64894;SDS011;51588;53.702;10.208;2023-10-09T03:13:57;2.13;;;1.70;;
64894;SDS011;51588;53.702;10.208;2023-10-09T03:16:25;1.60;;;1.50;;
64894;SDS011;51588;53.702;10.208;2023-10-09T03:18:52;3.70;;;1.93;;
64894;SDS011;51588;53.702;10.208;2023-10-09T03:21:27;2.00;;;1.60;;
64894;SDS011;51588;53.702;10.208;2023-10-09T03:23:56;2.67;;;1.50;;
64894;SDS011;51588;53.702;10.208;2023-10-09T03:26:22;2.20;;;1.83;;
64894;SDS011;51588;53.702;10.208;2023-10-09T03:28:51;2.10;;;1.47;;
64894;SDS011;51588;53.702;10.208;2023-10-09T03:31:27;2.00;;;1.67;;
64894;SDS011;51588;53.702;10.208;2023-10-09T03:33:57;2.70;;;1.80;;
64894;SDS011;51588;53.702;10.208;2023-10-09T03:36:23;3.50;;;1.30;;
64894;SDS011;51588;53.702;10.208;2023-10-09T03:38:52;2.63;;;1.70;;
64894;SDS011;51588;53.702;10.208;2023-10-09T03:41:19;2.73;;;1.70;;
64894;SDS011;51588;53.702;10.208;2023-10-09T03:43:46;2.00;;;1.50;;
64894;SDS011;51588;53.702;10.208;2023-10-09T03:46:13;1.83;;;1.47;;
64894;SDS011;51588;53.702;10.208;2023-10-09T03:48:50;2.30;;;1.57;;
64894;SDS011;51588;53.702;10.208;2023-10-09T03:51:17;2.50;;;1.60;;
64894;SDS011;51588;53.702;10.208;2023-10-09T03:53:53;2.27;;;1.70;;
64894;SDS011;51588;53.702;10.208;2023-10-09T03:56:19;1.80;;;1.40;;
64894;SDS011;51588;53.702;10.208;2023-10-09T03:58:47;2.70;;;1.73;;
64894;SDS011;51588;53.702;10.208;2023-10-09T04:01:14;3.20;;;1.87;;
64894;SDS011;51588;53.702;10.208;2023-10-09T04:03:47;2.00;;;1.70;;
64894;SDS011;51588;53.702;10.208;2023-10-09T04:06:15;1.90;;;1.33;;
64894;SDS011;51588;53.702;10.208;2023-10-09T04:08:43;2.57;;;1.70;;
64894;SDS011;51588;53.702;10.208;2023-10-09T04:11:16;1.87;;;1.50;;
64894;SDS011;51588;53.702;10.208;2023-10-09T04:13:51;2.47;;;1.57;;
64894;SDS011;51588;53.702;10.208;2023-10-09T04:16:18;1.97;;;1.50;;
64894;SDS011;51588;53.702;10.208;2023-10-09T04:19:16;2.67;;;1.73;;
64894;SDS011;51588;53.702;10.208;2023-10-09T04:21:48;2.30;;;1.40;;
64894;SDS011;51588;53.702;10.208;2023-10-09T04:24:13;2.67;;;1.50;;
64894;SDS011;51588;53.702;10.208;2023-10-09T04:26:49;1.60;;;1.50;;
64894;SDS011;51588;53.702;10.208;2023-10-09T04:29:21;1.63;;;1.40;;
64894;SDS011;51588;53.702;10.208;2023-10-09T04:31:51;2.30;;;1.53;;
64894;SDS011;51588;53.702;10.208;2023-10-09T04:34:18;2.80;;;1.53;;
64894;SDS011;51588;53.702;10.208;2023-10-09T04:36:48;1.80;;;1.43;;
64894;SDS011;51588;53.702;10.208;2023-10-09T04:39:16;7.20;;;2.10;;
64894;SDS011;51588;53.702;10.208;2023-10-09T04:42:00;1.57;;;1.47;;
64894;SDS011;51588;53.702;10.208;2023-10-09T04:44:41;2.80;;;1.60;;
64894;SDS011;51588;53.702;10.208;2023-10-09T04:47:24;2.07;;;1.40;;
64894;SDS011;51588;53.702;10.208;2023-10-09T04:49:50;2.00;;;1.40;;
64894;SDS011;51588;53.702;10.208;2023-10-09T04:52:28;2.17;;;1.40;;
64894;SDS011;51588;53.702;10.208;2023-10-09T04:55:11;3.47;;;1.90;;
64894;SDS011;51588;53.702;10.208;2023-10-09T04:57:47;1.97;;;1.30;;
64894;SDS011;51588;53.702;10.208;2023-10-09T05:00:27;2.20;;;1.50;;
64894;SDS011;51588;53.702;10.208;2023-10-09T05:03:11;3.03;;;1.60;;
64894;SDS011;51588;53.702;10.208;2023-10-09T05:05:50;3.87;;;1.40;;
64894;SDS011;51588;53.702;10.208;2023-10-09T05:08:25;3.10;;;1.57;;
64894;SDS011;51588;53.702;10.208;2023-10-09T05:10:54;2.53;;;1.70;;
64894;SDS011;51588;53.702;10.208;2023-10-09T05:13:31;2.27;;;1.60;;
64894;SDS011;51588;53.702;10.208;2023-10-09T05:16:11;2.57;;;1.63;;
64894;SDS011;51588;53.702;10.208;2023-10-09T05:18:46;6.00;;;1.83;;
64894;SDS011;51588;53.702;10.208;2023-10-09T05:21:21;310.60;;;50.60;;
64894;SDS011;51588;53.702;10.208;2023-10-09T05:24:11;271.33;;;49.97;;
64894;SDS011;51588;53.702;10.208;2023-10-09T05:26:44;232.20;;;39.33;;
64894;SDS011;51588;53.702;10.208;2023-10-09T05:29:16;161.30;;;27.77;;
64894;SDS011;51588;53.702;10.208;2023-10-09T05:31:47;132.83;;;24.13;;
64894;SDS011;51588;53.702;10.208;2023-10-09T05:34:22;85.73;;;17.27;;
64894;SDS011;51588;53.702;10.208;2023-10-09T05:36:48;91.57;;;16.33;;
64894;SDS011;51588;53.702;10.208;2023-10-09T05:39:17;75.87;;;15.70;;
64894;SDS011;51588;53.702;10.208;2023-10-09T05:41:47;61.63;;;11.80;;
64894;SDS011;51588;53.702;10.208;2023-10-09T05:44:17;54.47;;;10.67;;
64894;SDS011;51588;53.702;10.208;2023-10-09T05:47:01;39.97;;;9.07;;
64894;SDS011;51588;53.702;10.208;2023-10-09T05:49:44;34.73;;;7.40;;
64894;SDS011;51588;53.702;10.208;2023-10-09T05:52:20;34.17;;;7.17;;
64894;SDS011;51588;53.702;10.208;2023-10-09T05:54:59;26.40;;;6.60;;
64894;SDS011;51588;53.702;10.208;2023-10-09T05:58:06;28.03;;;6.90;;
64894;SDS011;51588;53.702;10.208;2023-10-09T06:00:49;23.40;;;5.90;;
64894;SDS011;51588;53.702;10.208;2023-10-09T06:03:33;22.23;;;5.57;;
64894;SDS011;51588;53.702;10.208;2023-10-09T06:06:13;26.13;;;5.57;;
64894;SDS011;51588;53.702;10.208;2023-10-09T06:08:43;21.87;;;5.50;;
64894;SDS011;51588;53.702;10.208;2023-10-09T06:11:34;16.70;;;4.70;;
64894;SDS011;51588;53.702;10.208;2023-10-09T06:14:17;14.47;;;4.87;;
64894;SDS011;51588;53.702;10.208;2023-10-09T06:16:50;17.53;;;4.60;;
64894;SDS011;51588;53.702;10.208;2023-10-09T06:19:25;25.60;;;5.30;;
64894;SDS011;51588;53.702;10.208;2023-10-09T06:21:53;13.20;;;3.63;;
64894;SDS011;51588;53.702;10.208;2023-10-09T06:24:52;16.57;;;4.00;;
64894;SDS011;51588;53.702;10.208;2023-10-09T06:27:23;11.03;;;3.37;;
64894;SDS011;51588;53.702;10.208;2023-10-09T06:30:12;15.30;;;4.40;;
64894;SDS011;51588;53.702;10.208;2023-10-09T06:32:49;18.87;;;4.53;;
64894;SDS011;51588;53.702;10.208;2023-10-09T06:35:15;14.40;;;3.70;;
64894;SDS011;51588;53.702;10.208;2023-10-09T06:37:43;13.10;;;3.93;;
64894;SDS011;51588;53.702;10.208;2023-10-09T06:40:27;13.27;;;3.83;;
64894;SDS011;51588;53.702;10.208;2023-10-09T06:43:13;8.33;;;3.57;;
64894;SDS011;51588;53.702;10.208;2023-10-09T06:45:52;14.80;;;4.00;;
64894;SDS011;51588;53.702;10.208;2023-10-09T06:48:20;15.23;;;3.60;;
64894;SDS011;51588;53.702;10.208;2023-10-09T06:51:05;11.83;;;3.37;;
64894;SDS011;51588;53.702;10.208;2023-10-09T06:53:38;15.33;;;3.63;;
64894;SDS011;51588;53.702;10.208;2023-10-09T06:56:30;11.10;;;3.33;;
64894;SDS011;51588;53.702;10.208;2023-10-09T06:59:12;10.80;;;3.30;;
64894;SDS011;51588;53.702;10.208;2023-10-09T07:01:46;9.07;;;3.20;;
64894;SDS011;51588;53.702;10.208;2023-10-09T07:04:16;12.00;;;3.60;;
64894;SDS011;51588;53.702;10.208;2023-10-09T07:07:05;5.67;;;2.80;;
64894;SDS011;51588;53.702;10.208;2023-10-09T07:09:32;8.80;;;3.07;;
64894;SDS011;51588;53.702;10.208;2023-10-09T07:12:08;5.73;;;2.70;;
64894;SDS011;51588;53.702;10.208;2023-10-09T07:14:36;10.50;;;2.87;;
64894;SDS011;51588;53.702;10.208;2023-10-09T07:17:20;5.53;;;2.33;;
64894;SDS011;51588;53.702;10.208;2023-10-09T07:19:52;11.47;;;3.20;;
64894;SDS011;51588;53.702;10.208;2023-10-09T07:22:35;7.70;;;2.33;;
64894;SDS011;51588;53.702;10.208;2023-10-09T07:25:17;5.30;;;2.53;;
64894;SDS011;51588;53.702;10.208;2023-10-09T07:27:52;6.17;;;2.67;;
64894;SDS011;51588;53.702;10.208;2023-10-09T07:30:22;4.97;;;2.37;;
64894;SDS011;51588;53.702;10.208;2023-10-09T07:33:02;6.17;;;2.60;;
64894;SDS011;51588;53.702;10.208;2023-10-09T07:35:41;7.97;;;2.40;;
64894;SDS011;51588;53.702;10.208;2023-10-09T07:38:14;6.20;;;2.60;;
64894;SDS011;51588;53.702;10.208;2023-10-09T07:40:44;6.43;;;2.23;;
64894;SDS011;51588;53.702;10.208;2023-10-09T07:43:20;9.37;;;2.70;;
64894;SDS011;51588;53.702;10.208;2023-10-09T07:45:52;7.97;;;2.23;;
64894;SDS011;51588;53.702;10.208;2023-10-09T07:48:33;7.97;;;2.57;;
64894;SDS011;51588;53.702;10.208;2023-10-09T07:51:13;8.57;;;2.33;;
64894;SDS011;51588;53.702;10.208;2023-10-09T07:53:43;7.43;;;2.10;;
64894;SDS011;51588;53.702;10.208;2023-10-09T07:56:10;8.27;;;2.30;;
64894;SDS011;51588;53.702;10.208;2023-10-09T07:58:39;7.80;;;2.37;;
64894;SDS011;51588;53.702;10.208;2023-10-09T08:01:13;10.40;;;2.10;;
64894;SDS011;51588;53.702;10.208;2023-10-09T08:03:47;4.27;;;2.23;;
64894;SDS011;51588;53.702;10.208;2023-10-09T08:06:22;4.53;;;1.90;;
64894;SDS011;51588;53.702;10.208;2023-10-09T08:09:08;5.57;;;2.00;;
64894;SDS011;51588;53.702;10.208;2023-10-09T08:11:45;4.37;;;2.00;;
64894;SDS011;51588;53.702;10.208;2023-10-09T08:14:44;11.63;;;2.30;;
64894;SDS011;51588;53.702;10.208;2023-10-09T08:17:18;5.03;;;2.27;;
64894;SDS011;51588;53.702;10.208;2023-10-09T08:19:47;5.97;;;2.13;;
64894;SDS011;51588;53.702;10.208;2023-10-09T08:22:22;4.73;;;2.07;;
64894;SDS011;51588;53.702;10.208;2023-10-09T08:25:06;5.37;;;2.13;;
64894;SDS011;51588;53.702;10.208;2023-10-09T08:27:33;5.60;;;2.30;;
64894;SDS011;51588;53.702;10.208;2023-10-09T08:30:19;8.23;;;2.30;;
64894;SDS011;51588;53.702;10.208;2023-10-09T08:32:55;3.20;;;1.90;;
64894;SDS011;51588;53.702;10.208;2023-10-09T08:35:28;2.80;;;2.20;;
64894;SDS011;51588;53.702;10.208;2023-10-09T08:37:59;3.43;;;2.10;;
64894;SDS011;51588;53.702;10.208;2023-10-09T08:40:29;4.33;;;2.00;;
64894;SDS011;51588;53.702;10.208;2023-10-09T08:42:58;2.73;;;2.10;;
64894;SDS011;51588;53.702;10.208;2023-10-09T08:45:26;16.13;;;3.13;;
64894;SDS011;51588;53.702;10.208;2023-10-09T08:47:57;17.03;;;2.10;;
64894;SDS011;51588;53.702;10.208;2023-10-09T08:50:26;18.50;;;2.67;;
64894;SDS011;51588;53.702;10.208;2023-10-09T08:52:53;26.30;;;2.37;;
64894;SDS011;51588;53.702;10.208;2023-10-09T08:55:20;18.37;;;3.30;;
64894;SDS011;51588;53.702;10.208;2023-10-09T08:57:46;17.23;;;2.37;;
64894;SDS011;51588;53.702;10.208;2023-10-09T09:00:16;15.23;;;3.00;;
64894;SDS011;51588;53.702;10.208;2023-10-09T09:02:46;23.43;;;3.30;;
64894;SDS011;51588;53.702;10.208;2023-10-09T09:05:20;18.23;;;2.27;;
64894;SDS011;51588;53.702;10.208;2023-10-09T09:07:46;13.07;;;2.87;;
64894;SDS011;51588;53.702;10.208;2023-10-09T09:10:13;22.67;;;2.20;;
64894;SDS011;51588;53.702;10.208;2023-10-09T09:12:43;10.30;;;2.17;;
64894;SDS011;51588;53.702;10.208;2023-10-09T09:15:13;8.63;;;2.40;;
64894;SDS011;51588;53.702;10.208;2023-10-09T09:17:46;15.40;;;2.07;;
64894;SDS011;51588;53.702;10.208;2023-10-09T09:20:22;10.43;;;2.00;;
64894;SDS011;51588;53.702;10.208;2023-10-09T09:22:52;5.57;;;1.90;;
64894;SDS011;51588;53.702;10.208;2023-10-09T09:25:19;4.83;;;1.83;;
64894;SDS011;51588;53.702;10.208;2023-10-09T09:27:49;11.27;;;2.60;;
64894;SDS011;51588;53.702;10.208;2023-10-09T09:30:24;6.60;;;1.70;;
64894;SDS011;51588;53.702;10.208;2023-10-09T09:32:51;8.87;;;2.37;;
64894;SDS011;51588;53.702;10.208;2023-10-09T09:35:39;7.30;;;2.10;;
64894;SDS011;51588;53.702;10.208;2023-10-09T09:38:22;6.23;;;1.70;;
64894;SDS011;51588;53.702;10.208;2023-10-09T09:40:48;7.93;;;1.70;;
64894;SDS011;51588;53.702;10.208;2023-10-09T09:43:19;5.13;;;1.50;;
64894;SDS011;51588;53.702;10.208;2023-10-09T09:45:47;11.23;;;1.77;;
64894;SDS011;51588;53.702;10.208;2023-10-09T09:48:14;3.87;;;1.60;;
64894;SDS011;51588;53.702;10.208;2023-10-09T09:50:45;2.70;;;1.50;;
64894;SDS011;51588;53.702;10.208;2023-10-09T09:53:12;6.30;;;1.53;;
64894;SDS011;51588;53.702;10.208;2023-10-09T09:55:43;6.83;;;1.80;;
64894;SDS011;51588;53.702;10.208;2023-10-09T09:58:17;3.33;;;1.50;;
64894;SDS011;51588;53.702;10.208;2023-10-09T10:00:45;3.13;;;1.80;;
64894;SDS011;51588;53.702;10.208;2023-10-09T10:03:18;4.53;;;1.50;;
64894;SDS011;51588;53.702;10.208;2023-10-09T10:05:47;6.50;;;1.70;;
64894;SDS011;51588;53.702;10.208;2023-10-09T10:08:14;4.00;;;1.53;;
64894;SDS011;51588;53.702;10.208;2023-10-09T10:10:44;2.63;;;1.60;;
64894;SDS011;51588;53.702;10.208;2023-10-09T10:13:15;4.30;;;1.43;;
64894;SDS011;51588;53.702;10.208;2023-10-09T10:16:05;1.70;;;1.10;;
64894;SDS011;51588;53.702;10.208;2023-10-09T10:18:54;5.23;;;1.67;;
64894;SDS011;51588;53.702;10.208;2023-10-09T10:21:26;3.93;;;1.50;;
64894;SDS011;51588;53.702;10.208;2023-10-09T10:24:04;2.70;;;1.40;;
64894;SDS011;51588;53.702;10.208;2023-10-09T10:26:32;1.90;;;1.10;;
64894;SDS011;51588;53.702;10.208;2023-10-09T10:29:15;3.63;;;1.10;;
64894;SDS011;51588;53.702;10.208;2023-10-09T10:31:51;2.80;;;1.20;;
64894;SDS011;51588;53.702;10.208;2023-10-09T10:34:19;1.27;;;1.13;;
64894;SDS011;51588;53.702;10.208;2023-10-09T10:36:50;1.47;;;1.20;;
64894;SDS011;51588;53.702;10.208;2023-10-09T10:39:23;1.60;;;1.30;;
64894;SDS011;51588;53.702;10.208;2023-10-09T10:42:08;1.53;;;1.20;;
64894;SDS011;51588;53.702;10.208;2023-10-09T10:44:39;2.53;;;1.03;;
64894;SDS011;51588;53.702;10.208;2023-10-09T10:47:12;1.97;;;1.10;;
64894;SDS011;51588;53.702;10.208;2023-10-09T10:49:50;1.43;;;1.33;;
64894;SDS011;51588;53.702;10.208;2023-10-09T10:52:21;2.10;;;1.40;;
64894;SDS011;51588;53.702;10.208;2023-10-09T10:54:48;2.77;;;1.40;;
64894;SDS011;51588;53.702;10.208;2023-10-09T10:57:35;1.60;;;1.40;;
64894;SDS011;51588;53.702;10.208;2023-10-09T11:00:18;1.40;;;1.30;;
64894;SDS011;51588;53.702;10.208;2023-10-09T11:02:58;2.50;;;1.50;;
64894;SDS011;51588;53.702;10.208;2023-10-09T11:05:38;1.73;;;1.33;;
64894;SDS011;51588;53.702;10.208;2023-10-09T11:08:10;4.60;;;1.60;;
64894;SDS011;51588;53.702;10.208;2023-10-09T11:10:36;2.93;;;1.43;;
64894;SDS011;51588;53.702;10.208;2023-10-09T11:13:20;3.47;;;1.70;;
64894;SDS011;51588;53.702;10.208;2023-10-09T11:15:58;1.73;;;1.10;;
64894;SDS011;51588;53.702;10.208;2023-10-09T11:18:39;1.40;;;1.10;;
64894;SDS011;51588;53.702;10.208;2023-10-09T11:21:08;2.63;;;1.30;;
64894;SDS011;51588;53.702;10.208;2023-10-09T11:23:57;1.77;;;1.30;;
64894;SDS011;51588;53.702;10.208;2023-10-09T11:26:47;3.03;;;1.30;;
64894;SDS011;51588;53.702;10.208;2023-10-09T11:29:19;2.50;;;1.30;;
64894;SDS011;51588;53.702;10.208;2023-10-09T11:32:00;1.30;;;1.00;;
64894;SDS011;51588;53.702;10.208;2023-10-09T11:34:26;1.77;;;1.00;;
64894;SDS011;51588;53.702;10.208;2023-10-09T11:36:57;1.67;;;1.10;;
64894;SDS011;51588;53.702;10.208;2023-10-09T11:39:25;1.20;;;1.10;;
64894;SDS011;51588;53.702;10.208;2023-10-09T11:41:59;2.20;;;1.47;;
64894;SDS011;51588;53.702;10.208;2023-10-09T11:44:34;1.40;;;1.00;;
64894;SDS011;51588;53.702;10.208;2023-10-09T11:47:00;1.90;;;1.13;;
64894;SDS011;51588;53.702;10.208;2023-10-09T11:49:46;1.93;;;1.07;;
64894;SDS011;51588;53.702;10.208;2023-10-09T11:52:12;1.47;;;1.10;;
64894;SDS011;51588;53.702;10.208;2023-10-09T11:54:57;1.63;;;0.90;;
64894;SDS011;51588;53.702;10.208;2023-10-09T11:57:24;2.77;;;1.23;;
64894;SDS011;51588;53.702;10.208;2023-10-09T11:59:56;3.50;;;1.30;;
64894;SDS011;51588;53.702;10.208;2023-10-09T12:02:22;3.20;;;1.30;;
64894;SDS011;51588;53.702;10.208;2023-10-09T12:04:49;3.57;;;1.30;;
64894;SDS011;51588;53.702;10.208;2023-10-09T12:07:15;2.87;;;1.10;;
64894;SDS011;51588;53.702;10.208;2023-10-09T12:09:45;4.70;;;1.20;;
64894;SDS011;51588;53.702;10.208;2023-10-09T12:12:14;3.67;;;1.30;;
64894;SDS011;51588;53.702;10.208;2023-10-09T12:14:40;2.77;;;1.30;;
64894;SDS011;51588;53.702;10.208;2023-10-09T12:17:09;5.33;;;1.30;;
64894;SDS011;51588;53.702;10.208;2023-10-09T12:19:36;3.17;;;1.07;;
64894;SDS011;51588;53.702;10.208;2023-10-09T12:22:03;2.50;;;1.27;;
64894;SDS011;51588;53.702;10.208;2023-10-09T12:24:30;2.20;;;1.10;;
64894;SDS011;51588;53.702;10.208;2023-10-09T12:26:58;5.03;;;1.20;;
64894;SDS011;51588;53.702;10.208;2023-10-09T12:29:26;2.53;;;1.00;;
64894;SDS011;51588;53.702;10.208;2023-10-09T12:31:55;2.87;;;1.10;;
64894;SDS011;51588;53.702;10.208;2023-10-09T12:34:24;4.37;;;1.10;;
64894;SDS011;51588;53.702;10.208;2023-10-09T12:36:52;1.10;;;0.93;;
64894;SDS011;51588;53.702;10.208;2023-10-09T12:39:18;2.30;;;1.20;;
64894;SDS011;51588;53.702;10.208;2023-10-09T12:41:44;1.40;;;1.10;;
64894;SDS011;51588;53.702;10.208;2023-10-09T12:44:11;1.43;;;0.90;;
64894;SDS011;51588;53.702;10.208;2023-10-09T12:46:44;1.83;;;1.10;;
64894;SDS011;51588;53.702;10.208;2023-10-09T12:49:17;2.53;;;1.00;;
64894;SDS011;51588;53.702;10.208;2023-10-09T12:51:43;5.73;;;1.00;;
64894;SDS011;51588;53.702;10.208;2023-10-09T12:54:09;1.67;;;1.10;;
64894;SDS011;51588;53.702;10.208;2023-10-09T12:56:43;1.87;;;1.10;;
64894;SDS011;51588;53.702;10.208;2023-10-09T12:59:13;3.40;;;1.20;;
64894;SDS011;51588;53.702;10.208;2023-10-09T13:01:40;1.67;;;0.90;;
64894;SDS011;51588;53.702;10.208;2023-10-09T13:04:11;1.53;;;1.00;;
64894;SDS011;51588;53.702;10.208;2023-10-09T13:06:40;2.57;;;1.00;;
64894;SDS011;51588;53.702;10.208;2023-10-09T13:09:09;1.57;;;1.00;;
64894;SDS011;51588;53.702;10.208;2023-10-09T13:11:35;2.30;;;1.20;;
64894;SDS011;51588;53.702;10.208;2023-10-09T13:14:02;4.50;;;0.90;;
64894;SDS011;51588;53.702;10.208;2023-10-09T13:16:36;3.93;;;1.00;;
64894;SDS011;51588;53.702;10.208;2023-10-09T13:19:03;1.53;;;0.93;;
64894;SDS011;51588;53.702;10.208;2023-10-09T13:21:42;2.53;;;0.93;;
64894;SDS011;51588;53.702;10.208;2023-10-09T13:24:08;14.07;;;1.00;;
64894;SDS011;51588;53.702;10.208;2023-10-09T13:26:40;2.90;;;0.90;;
64894;SDS011;51588;53.702;10.208;2023-10-09T13:29:10;4.10;;;1.10;;
64894;SDS011;51588;53.702;10.208;2023-10-09T13:31:37;1.40;;;1.13;;
64894;SDS011;51588;53.702;10.208;2023-10-09T13:34:05;3.03;;;1.00;;
64894;SDS011;51588;53.702;10.208;2023-10-09T13:36:35;3.37;;;0.77;;
64894;SDS011;51588;53.702;10.208;2023-10-09T13:39:04;2.70;;;0.87;;
64894;SDS011;51588;53.702;10.208;2023-10-09T13:41:57;3.10;;;1.10;;
64894;SDS011;51588;53.702;10.208;2023-10-09T13:44:24;4.33;;;0.83;;
64894;SDS011;51588;53.702;10.208;2023-10-09T13:46:52;2.90;;;1.00;;
64894;SDS011;51588;53.702;10.208;2023-10-09T13:49:18;3.93;;;1.20;;
64894;SDS011;51588;53.702;10.208;2023-10-09T13:51:47;1.40;;;0.90;;
64894;SDS011;51588;53.702;10.208;2023-10-09T13:54:15;2.00;;;1.00;;
64894;SDS011;51588;53.702;10.208;2023-10-09T13:56:46;6.00;;;1.10;;
64894;SDS011;51588;53.702;10.208;2023-10-09T13:59:14;1.83;;;0.93;;
64894;SDS011;51588;53.702;10.208;2023-10-09T14:01:45;1.30;;;0.70;;
64894;SDS011;51588;53.702;10.208;2023-10-09T14:04:13;5.33;;;1.10;;
64894;SDS011;51588;53.702;10.208;2023-10-09T14:06:43;1.97;;;0.90;;
64894;SDS011;51588;53.702;10.208;2023-10-09T14:09:10;2.30;;;1.00;;
64894;SDS011;51588;53.702;10.208;2023-10-09T14:11:53;1.80;;;0.80;;
64894;SDS011;51588;53.702;10.208;2023-10-09T14:14:32;1.50;;;1.00;;
64894;SDS011;51588;53.702;10.208;2023-10-09T14:16:58;1.00;;;0.80;;
64894;SDS011;51588;53.702;10.208;2023-10-09T14:19:25;2.53;;;0.87;;
64894;SDS011;51588;53.702;10.208;2023-10-09T14:21:51;1.53;;;0.90;;
64894;SDS011;51588;53.702;10.208;2023-10-09T14:24:18;1.43;;;0.87;;
64894;SDS011;51588;53.702;10.208;2023-10-09T14:26:45;2.10;;;0.80;;
64894;SDS011;51588;53.702;10.208;2023-10-09T14:29:12;1.43;;;0.93;;
64894;SDS011;51588;53.702;10.208;2023-10-09T14:31:43;1.87;;;0.80;;
64894;SDS011;51588;53.702;10.208;2023-10-09T14:34:14;2.53;;;0.80;;
64894;SDS011;51588;53.702;10.208;2023-10-09T14:36:40;2.37;;;0.90;;
64894;SDS011;51588;53.702;10.208;2023-10-09T14:39:12;2.23;;;0.87;;
64894;SDS011;51588;53.702;10.208;2023-10-09T14:41:44;2.00;;;1.00;;
64894;SDS011;51588;53.702;10.208;2023-10-09T14:44:13;1.70;;;0.80;;
64894;SDS011;51588;53.702;10.208;2023-10-09T14:46:42;1.20;;;0.80;;
64894;SDS011;51588;53.702;10.208;2023-10-09T14:49:09;4.30;;;0.90;;
64894;SDS011;51588;53.702;10.208;2023-10-09T14:51:39;2.30;;;1.00;;
64894;SDS011;51588;53.702;10.208;2023-10-09T14:54:05;1.63;;;0.90;;
64894;SDS011;51588;53.702;10.208;2023-10-09T14:56:33;3.27;;;1.00;;
64894;SDS011;51588;53.702;10.208;2023-10-09T14:59:01;4.00;;;0.87;;
64894;SDS011;51588;53.702;10.208;2023-10-09T15:01:28;3.53;;;1.23;;
64894;SDS011;51588;53.702;10.208;2023-10-09T15:04:00;7.17;;;1.03;;